createdAt,value
2022-09-10T00:00:35.000Z,11.78
2022-09-10T00:01:33.000Z,11.82
2022-09-10T00:02:32.000Z,11.94
2022-09-10T00:03:33.000Z,11.89
2022-09-10T00:04:32.000Z,11.89
2022-09-10T00:05:41.000Z,11.95
2022-09-10T00:06:33.000Z,11.94
2022-09-10T00:07:31.000Z,11.89
2022-09-10T00:08:32.000Z,11.89
2022-09-10T00:09:31.000Z,11.87
2022-09-10T00:10:40.000Z,11.89
2022-09-10T00:11:33.000Z,11.90
2022-09-10T00:12:33.000Z,11.92
2022-09-10T00:13:33.000Z,11.87
2022-09-10T00:14:31.000Z,11.87
2022-09-10T00:15:41.000Z,11.89
2022-09-10T00:16:32.000Z,11.96
2022-09-10T00:17:31.000Z,11.90
2022-09-10T00:18:33.000Z,11.89
2022-09-10T00:19:31.000Z,11.87
2022-09-10T00:20:31.000Z,11.87
2022-09-10T00:21:32.000Z,11.88
2022-09-10T00:22:32.000Z,11.95
2022-09-10T00:23:32.000Z,11.91
2022-09-10T00:24:32.000Z,11.87
2022-09-10T00:25:31.000Z,11.86
2022-09-10T00:26:37.000Z,11.85
2022-09-10T00:27:33.000Z,11.77
2022-09-10T00:28:32.000Z,11.77
2022-09-10T00:29:31.000Z,11.87
2022-09-10T00:30:31.000Z,11.71
2022-09-10T00:31:32.000Z,11.82
2022-09-10T00:32:32.000Z,11.78
2022-09-10T00:33:31.000Z,11.76
2022-09-10T00:34:32.000Z,11.73
2022-09-10T00:35:33.000Z,11.78
2022-09-10T00:36:35.000Z,11.89
2022-09-10T00:37:32.000Z,11.87
2022-09-10T00:38:32.000Z,11.79
2022-09-10T00:39:32.000Z,11.84
2022-09-10T00:40:32.000Z,11.79
2022-09-10T00:41:35.000Z,11.79
2022-09-10T00:42:32.000Z,11.81
2022-09-10T00:43:42.000Z,11.74
2022-09-10T00:44:52.000Z,11.85
2022-09-10T00:45:35.000Z,11.84
2022-09-10T00:46:43.000Z,11.85
2022-09-10T00:47:37.000Z,11.88
2022-09-10T00:48:32.000Z,11.98
2022-09-10T00:49:39.000Z,11.89
2022-09-10T00:50:39.000Z,11.91
2022-09-10T00:51:34.000Z,11.85
2022-09-10T00:52:33.000Z,11.85
2022-09-10T00:53:32.000Z,11.83
2022-09-10T00:54:35.000Z,11.82
2022-09-10T00:55:34.000Z,11.91
2022-09-10T00:56:33.000Z,11.85
2022-09-10T00:57:32.000Z,11.89
2022-09-10T00:58:32.000Z,11.89
2022-09-10T00:59:34.000Z,11.89
2022-09-10T01:00:33.000Z,11.85
2022-09-10T01:01:33.000Z,11.79
2022-09-10T01:02:32.000Z,11.83
2022-09-10T01:03:32.000Z,11.79
2022-09-10T01:04:33.000Z,11.79
2022-09-10T01:05:33.000Z,11.86
2022-09-10T01:06:32.000Z,11.81
2022-09-10T01:07:32.000Z,11.75
2022-09-10T01:08:32.000Z,11.80
2022-09-10T01:09:32.000Z,11.75
2022-09-10T01:10:46.000Z,11.79
2022-09-10T01:11:48.000Z,11.79
2022-09-10T01:12:43.000Z,11.85
2022-09-10T01:13:43.000Z,11.79
2022-09-10T01:14:42.000Z,11.79
2022-09-10T01:15:42.000Z,11.87
2022-09-10T01:16:43.000Z,11.83
2022-09-10T01:17:43.000Z,11.87
2022-09-10T01:18:47.000Z,11.85
2022-09-10T01:19:53.000Z,11.85
2022-09-10T01:20:42.000Z,11.84
2022-09-10T01:21:42.000Z,11.83
2022-09-10T01:22:55.000Z,11.84
2022-09-10T01:23:51.000Z,11.93
2022-09-10T01:24:42.000Z,11.93
2022-09-10T01:25:43.000Z,11.85
2022-09-10T01:26:56.000Z,11.88
2022-09-10T01:27:40.000Z,11.81
2022-09-10T01:28:40.000Z,11.78
2022-09-10T01:29:43.000Z,11.81
2022-09-10T01:30:42.000Z,11.80
2022-09-10T01:31:38.000Z,11.76
2022-09-10T01:32:43.000Z,11.89
2022-09-10T01:33:40.000Z,11.88
2022-09-10T01:34:39.000Z,11.93
2022-09-10T01:35:42.000Z,11.93
2022-09-10T01:36:37.000Z,11.89
2022-09-10T01:37:35.000Z,11.91
2022-09-10T01:38:36.000Z,11.86
2022-09-10T01:39:33.000Z,11.84
2022-09-10T01:40:33.000Z,11.80
2022-09-10T01:41:32.000Z,11.79
2022-09-10T01:42:35.000Z,11.83
2022-09-10T01:43:32.000Z,11.91
2022-09-10T01:44:42.000Z,11.86
2022-09-10T01:45:42.000Z,11.85
2022-09-10T01:46:49.000Z,11.80
2022-09-10T01:47:52.000Z,11.82
2022-09-10T01:48:42.000Z,11.79
2022-09-10T01:49:43.000Z,11.78
2022-09-10T01:50:54.000Z,11.76
2022-09-10T01:52:05.000Z,11.78
2022-09-10T01:52:44.000Z,11.81
2022-09-10T01:53:42.000Z,11.78
2022-09-10T01:54:51.000Z,11.77
2022-09-10T01:55:43.000Z,11.77
2022-09-10T01:56:44.000Z,11.83
2022-09-10T01:57:45.000Z,11.84
2022-09-10T01:58:38.000Z,11.86
2022-09-10T01:59:43.000Z,11.84
2022-09-10T02:00:36.000Z,11.81
2022-09-10T02:01:43.000Z,11.83
2022-09-10T02:02:39.000Z,11.82
2022-09-10T02:03:35.000Z,11.82
2022-09-10T02:04:33.000Z,11.92
2022-09-10T02:05:36.000Z,11.95
2022-09-10T02:06:37.000Z,11.91
2022-09-10T02:07:35.000Z,11.85
2022-09-10T02:08:36.000Z,11.85
2022-09-10T02:09:32.000Z,11.84
2022-09-10T02:10:32.000Z,11.82
2022-09-10T02:11:42.000Z,11.90
2022-09-10T02:12:33.000Z,11.96
2022-09-10T02:13:33.000Z,11.93
2022-09-10T02:14:32.000Z,11.89
2022-09-10T02:15:32.000Z,11.87
2022-09-10T02:16:37.000Z,11.95
2022-09-10T02:17:35.000Z,11.98
2022-09-10T02:18:33.000Z,11.95
2022-09-10T02:19:32.000Z,11.92
2022-09-10T02:20:32.000Z,12.00
2022-09-10T02:21:33.000Z,11.98
2022-09-10T02:22:34.000Z,11.91
2022-09-10T02:23:39.000Z,11.94
2022-09-10T02:24:32.000Z,11.94
2022-09-10T02:25:33.000Z,11.92
2022-09-10T02:26:33.000Z,11.92
2022-09-10T02:27:32.000Z,11.98
2022-09-10T02:28:32.000Z,11.94
2022-09-10T02:29:33.000Z,11.94
2022-09-10T02:30:32.000Z,11.91
2022-09-10T02:31:32.000Z,11.89
2022-09-10T02:32:32.000Z,11.87
2022-09-10T02:33:32.000Z,11.88
2022-09-10T02:34:34.000Z,11.85
2022-09-10T02:35:32.000Z,11.90
2022-09-10T02:36:32.000Z,11.90
2022-09-10T02:37:32.000Z,11.95
2022-09-10T02:38:33.000Z,11.94
2022-09-10T02:39:32.000Z,11.96
2022-09-10T02:40:32.000Z,11.93
2022-09-10T02:41:33.000Z,11.92
2022-09-10T02:42:33.000Z,11.91
2022-09-10T02:43:35.000Z,11.92
2022-09-10T02:44:32.000Z,11.94
2022-09-10T02:45:33.000Z,11.91
2022-09-10T02:46:33.000Z,11.94
2022-09-10T02:47:32.000Z,11.95
2022-09-10T02:48:33.000Z,11.92
2022-09-10T02:49:33.000Z,11.90
2022-09-10T02:50:33.000Z,11.92
2022-09-10T02:51:32.000Z,11.87
2022-09-10T02:52:33.000Z,11.91
2022-09-10T02:53:33.000Z,11.86
2022-09-10T02:54:32.000Z,11.97
2022-09-10T02:55:32.000Z,11.93
2022-09-10T02:56:33.000Z,11.96
2022-09-10T02:57:32.000Z,11.92
2022-09-10T02:58:33.000Z,11.90
2022-09-10T02:59:33.000Z,11.94
2022-09-10T03:00:32.000Z,11.99
2022-09-10T03:01:33.000Z,12.03
2022-09-10T03:02:32.000Z,12.01
2022-09-10T03:03:33.000Z,12.02
2022-09-10T03:04:32.000Z,12.00
2022-09-10T03:05:33.000Z,11.97
2022-09-10T03:06:32.000Z,11.97
2022-09-10T03:07:33.000Z,11.93
2022-09-10T03:08:33.000Z,11.97
2022-09-10T03:09:34.000Z,11.95
2022-09-10T03:10:32.000Z,12.00
2022-09-10T03:11:38.000Z,11.95
2022-09-10T03:12:32.000Z,12.00
2022-09-10T03:13:32.000Z,11.96
2022-09-10T03:14:32.000Z,11.96
2022-09-10T03:15:32.000Z,11.96
2022-09-10T03:16:32.000Z,11.92
2022-09-10T03:17:32.000Z,12.00
2022-09-10T03:18:34.000Z,11.96
2022-09-10T03:19:32.000Z,12.00
2022-09-10T03:20:32.000Z,11.97
2022-09-10T03:21:33.000Z,11.95
2022-09-10T03:22:32.000Z,11.94
2022-09-10T03:23:32.000Z,11.96
2022-09-10T03:24:32.000Z,11.96
2022-09-10T03:25:32.000Z,11.98
2022-09-10T03:26:32.000Z,11.98
2022-09-10T03:27:32.000Z,12.02
2022-09-10T03:28:32.000Z,11.97
2022-09-10T03:29:32.000Z,12.02
2022-09-10T03:30:32.000Z,12.01
2022-09-10T03:31:34.000Z,12.00
2022-09-10T03:32:32.000Z,12.05
2022-09-10T03:33:32.000Z,12.04
2022-09-10T03:34:32.000Z,11.99
2022-09-10T03:35:32.000Z,11.92
2022-09-10T03:36:32.000Z,11.90
2022-09-10T03:37:32.000Z,11.97
2022-09-10T03:38:32.000Z,11.98
2022-09-10T03:39:31.000Z,11.95
2022-09-10T03:40:32.000Z,11.94
2022-09-10T03:41:32.000Z,11.94
2022-09-10T03:42:31.000Z,11.96
2022-09-10T03:43:32.000Z,11.96
2022-09-10T03:44:32.000Z,11.98
2022-09-10T03:45:32.000Z,12.01
2022-09-10T03:46:32.000Z,12.01
2022-09-10T03:47:32.000Z,12.01
2022-09-10T03:48:32.000Z,12.07
2022-09-10T03:49:32.000Z,12.09
2022-09-10T03:50:32.000Z,12.06
2022-09-10T03:51:33.000Z,12.09
2022-09-10T03:52:31.000Z,12.11
2022-09-10T03:53:31.000Z,12.07
2022-09-10T03:54:31.000Z,12.09
2022-09-10T03:55:32.000Z,12.05
2022-09-10T03:56:32.000Z,12.00
2022-09-10T03:57:31.000Z,11.95
2022-09-10T03:58:32.000Z,11.95
2022-09-10T03:59:32.000Z,12.08
2022-09-10T04:00:32.000Z,12.00
2022-09-10T04:01:32.000Z,12.00
2022-09-10T04:02:31.000Z,11.94
2022-09-10T04:03:32.000Z,11.94
2022-09-10T04:04:32.000Z,11.98
2022-09-10T04:05:31.000Z,11.89
2022-09-10T04:06:32.000Z,11.88
2022-09-10T04:07:32.000Z,11.98
2022-09-10T04:08:31.000Z,11.95
2022-09-10T04:09:32.000Z,11.94
2022-09-10T04:10:32.000Z,11.92
2022-09-10T04:11:32.000Z,11.93
2022-09-10T04:12:32.000Z,11.95
2022-09-10T04:13:32.000Z,11.94
2022-09-10T04:14:33.000Z,11.89
2022-09-10T04:15:32.000Z,11.88
2022-09-10T04:16:32.000Z,11.89
2022-09-10T04:17:32.000Z,11.83
2022-09-10T04:18:33.000Z,11.94
2022-09-10T04:19:32.000Z,11.91
2022-09-10T04:20:32.000Z,11.88
2022-09-10T04:21:32.000Z,11.90
2022-09-10T04:22:33.000Z,11.99
2022-09-10T04:23:32.000Z,11.92
2022-09-10T04:24:32.000Z,11.93
2022-09-10T04:25:32.000Z,11.89
2022-09-10T04:26:32.000Z,11.87
2022-09-10T04:27:32.000Z,11.86
2022-09-10T04:28:32.000Z,11.87
2022-09-10T04:29:32.000Z,11.84
2022-09-10T04:30:32.000Z,11.85
2022-09-10T04:31:32.000Z,11.89
2022-09-10T04:32:32.000Z,11.94
2022-09-10T04:33:32.000Z,12.01
2022-09-10T04:34:32.000Z,11.96
2022-09-10T04:35:32.000Z,11.93
2022-09-10T04:36:32.000Z,11.94
2022-09-10T04:37:33.000Z,11.93
2022-09-10T04:38:32.000Z,11.92
2022-09-10T04:39:32.000Z,11.90
2022-09-10T04:40:33.000Z,11.97
2022-09-10T04:41:32.000Z,11.93
2022-09-10T04:42:32.000Z,11.93
2022-09-10T04:43:32.000Z,12.01
2022-09-10T04:44:32.000Z,11.94
2022-09-10T04:45:33.000Z,11.90
2022-09-10T04:46:32.000Z,11.89
2022-09-10T04:47:32.000Z,11.96
2022-09-10T04:48:32.000Z,11.90
2022-09-10T04:49:32.000Z,11.99
2022-09-10T04:50:32.000Z,11.93
2022-09-10T04:51:32.000Z,11.89
2022-09-10T04:52:32.000Z,11.96
2022-09-10T04:53:33.000Z,11.89
2022-09-10T04:54:36.000Z,11.91
2022-09-10T04:55:32.000Z,11.98
2022-09-10T04:56:32.000Z,12.00
2022-09-10T04:57:32.000Z,12.03
2022-09-10T04:58:32.000Z,12.01
2022-09-10T04:59:32.000Z,12.02
2022-09-10T05:00:32.000Z,12.03
2022-09-10T05:01:33.000Z,12.06
2022-09-10T05:02:33.000Z,12.00
2022-09-10T05:03:32.000Z,12.03
2022-09-10T05:04:32.000Z,11.99
2022-09-10T05:05:32.000Z,11.93
2022-09-10T05:06:32.000Z,11.94
2022-09-10T05:07:32.000Z,11.97
2022-09-10T05:08:32.000Z,11.93
2022-09-10T05:09:32.000Z,11.94
2022-09-10T05:10:32.000Z,11.97
2022-09-10T05:11:32.000Z,11.99
2022-09-10T05:12:31.000Z,11.99
2022-09-10T05:13:31.000Z,12.05
2022-09-10T05:14:32.000Z,12.04
2022-09-10T05:15:34.000Z,12.06
2022-09-10T05:16:32.000Z,12.14
2022-09-10T05:17:32.000Z,12.01
2022-09-10T05:18:31.000Z,12.05
2022-09-10T05:19:31.000Z,12.06
2022-09-10T05:20:33.000Z,12.01
2022-09-10T05:21:31.000Z,12.02
2022-09-10T05:22:32.000Z,12.05
2022-09-10T05:23:32.000Z,12.03
2022-09-10T05:24:32.000Z,12.06
2022-09-10T05:25:32.000Z,12.04
2022-09-10T05:26:31.000Z,12.05
2022-09-10T05:27:31.000Z,12.15
2022-09-10T05:28:31.000Z,12.04
2022-09-10T05:29:31.000Z,12.06
2022-09-10T05:30:31.000Z,12.05
2022-09-10T05:31:32.000Z,12.01
2022-09-10T05:32:31.000Z,12.01
2022-09-10T05:33:31.000Z,12.07
2022-09-10T05:34:31.000Z,12.06
2022-09-10T05:35:31.000Z,12.08
2022-09-10T05:36:32.000Z,12.09
2022-09-10T05:37:31.000Z,12.18
2022-09-10T05:38:31.000Z,12.02
2022-09-10T05:39:31.000Z,12.04
2022-09-10T05:40:33.000Z,12.00
2022-09-10T05:41:31.000Z,11.99
2022-09-10T05:42:32.000Z,11.99
2022-09-10T05:43:31.000Z,12.03
2022-09-10T05:44:32.000Z,12.01
2022-09-10T05:45:32.000Z,12.07
2022-09-10T05:46:31.000Z,12.12
2022-09-10T05:47:32.000Z,12.03
2022-09-10T05:48:32.000Z,12.05
2022-09-10T05:49:32.000Z,12.05
2022-09-10T05:50:31.000Z,12.07
2022-09-10T05:51:32.000Z,12.01
2022-09-10T05:52:31.000Z,12.00
2022-09-10T05:53:31.000Z,12.00
2022-09-10T05:54:32.000Z,12.01
2022-09-10T05:55:31.000Z,12.01
2022-09-10T05:56:32.000Z,12.05
2022-09-10T05:57:31.000Z,12.00
2022-09-10T05:58:33.000Z,11.98
2022-09-10T05:59:32.000Z,12.01
2022-09-10T06:00:32.000Z,12.04
2022-09-10T06:01:33.000Z,12.05
2022-09-10T06:02:32.000Z,12.03
2022-09-10T06:03:32.000Z,12.02
2022-09-10T06:04:31.000Z,12.02
2022-09-10T06:05:31.000Z,12.08
2022-09-10T06:06:31.000Z,12.03
2022-09-10T06:07:31.000Z,12.00
2022-09-10T06:08:32.000Z,12.03
2022-09-10T06:09:32.000Z,12.00
2022-09-10T06:10:32.000Z,12.13
2022-09-10T06:11:31.000Z,12.03
2022-09-10T06:12:32.000Z,12.03
2022-09-10T06:13:33.000Z,12.07
2022-09-10T06:14:32.000Z,12.04
2022-09-10T06:15:33.000Z,12.02
2022-09-10T06:16:32.000Z,12.01
2022-09-10T06:17:32.000Z,11.95
2022-09-10T06:18:32.000Z,11.99
2022-09-10T06:19:32.000Z,11.99
2022-09-10T06:20:32.000Z,11.98
2022-09-10T06:21:33.000Z,12.02
2022-09-10T06:22:32.000Z,12.11
2022-09-10T06:23:32.000Z,12.08
2022-09-10T06:24:32.000Z,11.98
2022-09-10T06:25:32.000Z,11.95
2022-09-10T06:26:32.000Z,11.99
2022-09-10T06:27:33.000Z,11.93
2022-09-10T06:28:32.000Z,12.01
2022-09-10T06:29:34.000Z,12.04
2022-09-10T06:30:32.000Z,12.03
2022-09-10T06:31:33.000Z,12.00
2022-09-10T06:32:32.000Z,11.98
2022-09-10T06:33:33.000Z,11.96
2022-09-10T06:34:32.000Z,11.94
2022-09-10T06:35:32.000Z,11.93
2022-09-10T06:36:32.000Z,11.98
2022-09-10T06:37:33.000Z,11.98
2022-09-10T06:38:35.000Z,12.06
2022-09-10T06:39:32.000Z,11.99
2022-09-10T06:40:32.000Z,12.00
2022-09-10T06:41:33.000Z,12.07
2022-09-10T06:42:32.000Z,12.01
2022-09-10T06:43:34.000Z,12.01
2022-09-10T06:44:32.000Z,12.00
2022-09-10T06:45:32.000Z,11.98
2022-09-10T06:46:32.000Z,11.94
2022-09-10T06:46:32.000Z,11.94
2022-09-10T06:46:32.000Z,11.94
2022-09-10T06:48:02.000Z,11.96
2022-09-10T06:48:40.000Z,11.99
2022-09-10T06:49:32.000Z,11.97
2022-09-10T06:50:32.000Z,11.88
2022-09-10T06:51:32.000Z,11.86
2022-09-10T06:52:32.000Z,11.88
2022-09-10T06:53:32.000Z,11.93
2022-09-10T06:54:32.000Z,11.96
2022-09-10T06:55:33.000Z,12.03
2022-09-10T06:56:32.000Z,11.96
2022-09-10T06:57:31.000Z,11.86
2022-09-10T06:58:35.000Z,11.93
2022-09-10T06:59:32.000Z,11.98
2022-09-10T07:00:32.000Z,11.96
2022-09-10T07:01:32.000Z,11.97
2022-09-10T07:02:32.000Z,11.97
2022-09-10T07:03:32.000Z,11.97
2022-09-10T07:04:31.000Z,11.98
2022-09-10T07:05:32.000Z,12.01
2022-09-10T07:06:34.000Z,12.02
2022-09-10T07:07:32.000Z,11.95
2022-09-10T07:08:32.000Z,11.87
2022-09-10T07:09:32.000Z,11.88
2022-09-10T07:10:32.000Z,11.92
2022-09-10T07:11:32.000Z,11.93
2022-09-10T07:12:32.000Z,11.88
2022-09-10T07:13:33.000Z,11.91
2022-09-10T07:14:32.000Z,11.95
2022-09-10T07:15:33.000Z,11.99
2022-09-10T07:16:32.000Z,11.91
2022-09-10T07:17:34.000Z,11.95
2022-09-10T07:18:32.000Z,11.96
2022-09-10T07:19:34.000Z,11.94
2022-09-10T07:20:31.000Z,11.90
2022-09-10T07:21:35.000Z,11.94
2022-09-10T07:22:32.000Z,11.99
2022-09-10T07:23:32.000Z,11.92
2022-09-10T07:24:32.000Z,11.95
2022-09-10T07:25:32.000Z,11.91
2022-09-10T07:26:31.000Z,11.94
2022-09-10T07:27:32.000Z,11.94
2022-09-10T07:28:32.000Z,11.88
2022-09-10T07:29:31.000Z,11.93
2022-09-10T07:30:34.000Z,11.94
2022-09-10T07:31:36.000Z,11.96
2022-09-10T07:32:32.000Z,11.99
2022-09-10T07:33:32.000Z,12.00
2022-09-10T07:34:31.000Z,11.97
2022-09-10T07:35:36.000Z,11.97
2022-09-10T07:36:32.000Z,11.92
2022-09-10T07:37:32.000Z,11.92
2022-09-10T07:38:32.000Z,11.91
2022-09-10T07:39:32.000Z,11.90
2022-09-10T07:40:32.000Z,11.97
2022-09-10T07:41:32.000Z,11.92
2022-09-10T07:42:32.000Z,11.91
2022-09-10T07:43:32.000Z,11.90
2022-09-10T07:44:32.000Z,11.93
2022-09-10T07:45:31.000Z,11.95
2022-09-10T07:46:31.000Z,11.96
2022-09-10T07:47:31.000Z,12.00
2022-09-10T07:48:32.000Z,12.02
2022-09-10T07:49:32.000Z,12.10
2022-09-10T07:50:31.000Z,12.06
2022-09-10T07:51:33.000Z,12.10
2022-09-10T07:52:32.000Z,12.17
2022-09-10T07:53:32.000Z,12.13
2022-09-10T07:54:31.000Z,12.13
2022-09-10T07:55:32.000Z,12.09
2022-09-10T07:56:32.000Z,12.00
2022-09-10T07:57:33.000Z,12.06
2022-09-10T07:58:33.000Z,12.12
2022-09-10T07:59:32.000Z,12.16
2022-09-10T08:00:32.000Z,12.15
2022-09-10T08:01:32.000Z,12.18
2022-09-10T08:02:31.000Z,12.10
2022-09-10T08:03:33.000Z,12.12
2022-09-10T08:04:33.000Z,12.11
2022-09-10T08:05:32.000Z,12.11
2022-09-10T08:06:32.000Z,12.14
2022-09-10T08:07:32.000Z,12.17
2022-09-10T08:08:34.000Z,12.22
2022-09-10T08:09:32.000Z,12.05
2022-09-10T08:10:32.000Z,12.09
2022-09-10T08:11:33.000Z,12.04
2022-09-10T08:12:36.000Z,11.96
2022-09-10T08:13:34.000Z,11.88
2022-09-10T08:14:32.000Z,11.96
2022-09-10T08:15:33.000Z,11.93
2022-09-10T08:16:32.000Z,12.00
2022-09-10T08:17:32.000Z,11.98
2022-09-10T08:18:32.000Z,11.85
2022-09-10T08:19:32.000Z,11.93
2022-09-10T08:20:32.000Z,11.88
2022-09-10T08:21:32.000Z,11.90
2022-09-10T08:22:33.000Z,11.86
2022-09-10T08:23:33.000Z,11.88
2022-09-10T08:24:32.000Z,11.90
2022-09-10T08:25:32.000Z,11.91
2022-09-10T08:26:32.000Z,11.94
2022-09-10T08:27:33.000Z,11.81
2022-09-10T08:28:33.000Z,11.90
2022-09-10T08:29:33.000Z,11.95
2022-09-10T08:30:48.000Z,11.91
2022-09-10T08:32:21.000Z,11.99
2022-09-10T08:32:35.000Z,12.02
2022-09-10T08:33:33.000Z,12.04
2022-09-10T08:34:33.000Z,12.05
2022-09-10T08:35:31.000Z,11.98
2022-09-10T08:36:31.000Z,11.94
2022-09-10T08:37:32.000Z,11.93
2022-09-10T08:38:34.000Z,11.97
2022-09-10T08:39:31.000Z,12.00
2022-09-10T08:40:31.000Z,11.87
2022-09-10T08:41:47.000Z,11.84
2022-09-10T08:42:40.000Z,11.89
2022-09-10T08:43:42.000Z,11.97
2022-09-10T08:44:43.000Z,12.01
2022-09-10T08:45:32.000Z,11.98
2022-09-10T08:46:38.000Z,11.97
2022-09-10T08:47:41.000Z,12.04
2022-09-10T08:48:35.000Z,12.00
2022-09-10T08:49:48.000Z,11.90
2022-09-10T08:50:39.000Z,11.94
2022-09-10T08:51:51.000Z,11.97
2022-09-10T08:52:43.000Z,11.99
2022-09-10T08:53:43.000Z,12.00
2022-09-10T08:54:36.000Z,12.04
2022-09-10T08:55:35.000Z,12.09
2022-09-10T08:56:32.000Z,12.01
2022-09-10T08:57:38.000Z,12.10
2022-09-10T08:58:41.000Z,12.10
2022-09-10T08:59:39.000Z,12.01
2022-09-10T09:00:36.000Z,11.93
2022-09-10T09:01:39.000Z,12.13
2022-09-10T09:02:52.000Z,12.12
2022-09-10T09:03:46.000Z,11.97
2022-09-10T09:04:41.000Z,11.97
2022-09-10T09:05:44.000Z,11.92
2022-09-10T09:06:39.000Z,12.01
2022-09-10T09:07:35.000Z,12.04
2022-09-10T09:08:40.000Z,12.04
2022-09-10T09:09:31.000Z,12.03
2022-09-10T09:10:52.000Z,12.03
2022-09-10T09:11:48.000Z,12.09
2022-09-10T09:12:40.000Z,12.11
2022-09-10T09:13:41.000Z,11.90
2022-09-10T09:14:47.000Z,12.03
2022-09-10T09:15:41.000Z,12.02
2022-09-10T09:16:51.000Z,11.95
2022-09-10T09:17:42.000Z,11.78
2022-09-10T09:18:54.000Z,11.67
2022-09-10T09:19:43.000Z,11.81
2022-09-10T09:20:42.000Z,11.87
2022-09-10T09:21:42.000Z,11.88
2022-09-10T09:22:42.000Z,12.02
2022-09-10T09:23:45.000Z,11.90
2022-09-10T09:24:41.000Z,11.97
2022-09-10T09:25:43.000Z,11.96
2022-09-10T09:26:34.000Z,11.94
2022-09-10T09:27:37.000Z,11.92
2022-09-10T09:28:42.000Z,11.83
2022-09-10T09:29:52.000Z,11.84
2022-09-10T09:30:41.000Z,11.76
2022-09-10T09:31:38.000Z,11.70
2022-09-10T09:32:35.000Z,11.76
2022-09-10T09:33:31.000Z,11.69
2022-09-10T09:34:36.000Z,11.73
2022-09-10T09:35:39.000Z,11.77
2022-09-10T09:36:41.000Z,11.89
2022-09-10T09:37:34.000Z,11.87
2022-09-10T09:38:38.000Z,11.84
2022-09-10T09:39:39.000Z,11.88
2022-09-10T09:40:43.000Z,11.90
2022-09-10T09:41:44.000Z,11.82
2022-09-10T09:42:39.000Z,11.83
2022-09-10T09:43:47.000Z,11.67
2022-09-10T09:44:42.000Z,11.67
2022-09-10T09:45:39.000Z,11.69
2022-09-10T09:46:32.000Z,11.78
2022-09-10T09:47:31.000Z,11.85
2022-09-10T09:48:37.000Z,11.90
2022-09-10T09:49:31.000Z,11.94
2022-09-10T09:50:37.000Z,11.89
2022-09-10T09:51:33.000Z,12.01
2022-09-10T09:52:32.000Z,11.91
2022-09-10T09:53:32.000Z,11.95
2022-09-10T09:54:31.000Z,12.02
2022-09-10T09:55:39.000Z,11.92
2022-09-10T09:56:39.000Z,11.98
2022-09-10T09:57:31.000Z,12.06
2022-09-10T09:58:34.000Z,11.84
2022-09-10T09:59:32.000Z,11.88
2022-09-10T10:00:34.000Z,11.96
2022-09-10T10:01:36.000Z,12.01
2022-09-10T10:02:34.000Z,12.00
2022-09-10T10:03:41.000Z,11.94
2022-09-10T10:04:32.000Z,12.00
2022-09-10T10:05:31.000Z,11.97
2022-09-10T10:06:43.000Z,11.80
2022-09-10T10:07:33.000Z,11.62
2022-09-10T10:08:38.000Z,11.73
2022-09-10T10:09:39.000Z,11.83
2022-09-10T10:10:31.000Z,11.83
2022-09-10T10:11:40.000Z,11.82
2022-09-10T10:12:32.000Z,11.79
2022-09-10T10:13:48.000Z,11.64
2022-09-10T10:14:39.000Z,11.69
2022-09-10T10:15:37.000Z,11.77
2022-09-10T10:16:33.000Z,11.72
2022-09-10T10:17:37.000Z,11.81
2022-09-10T10:18:31.000Z,11.68
2022-09-10T10:19:37.000Z,11.80
2022-09-10T10:20:37.000Z,11.77
2022-09-10T10:21:33.000Z,11.71
2022-09-10T10:22:31.000Z,11.84
2022-09-10T10:23:33.000Z,11.86
2022-09-10T10:24:32.000Z,11.79
2022-09-10T10:25:37.000Z,11.74
2022-09-10T10:26:33.000Z,11.75
2022-09-10T10:27:39.000Z,11.80
2022-09-10T10:28:32.000Z,11.78
2022-09-10T10:29:31.000Z,11.85
2022-09-10T10:30:31.000Z,11.82
2022-09-10T10:31:39.000Z,11.83
2022-09-10T10:32:40.000Z,11.79
2022-09-10T10:33:31.000Z,11.88
2022-09-10T10:34:52.000Z,11.88
2022-09-10T10:35:44.000Z,11.94
2022-09-10T10:36:45.000Z,11.92
2022-09-10T10:37:41.000Z,11.99
2022-09-10T10:38:37.000Z,11.95
2022-09-10T10:40:08.000Z,11.94
2022-09-10T10:40:35.000Z,11.97
2022-09-10T10:41:48.000Z,11.93
2022-09-10T10:42:42.000Z,11.76
2022-09-10T10:43:45.000Z,11.81
2022-09-10T10:44:48.000Z,11.86
2022-09-10T10:45:56.000Z,11.84
2022-09-10T10:46:42.000Z,11.84
2022-09-10T10:47:41.000Z,11.75
2022-09-10T10:48:41.000Z,11.88
2022-09-10T10:49:41.000Z,11.91
2022-09-10T10:50:54.000Z,12.04
2022-09-10T10:51:54.000Z,12.07
2022-09-10T10:52:55.000Z,12.03
2022-09-10T10:53:45.000Z,12.07
2022-09-10T10:54:51.000Z,11.82
2022-09-10T10:55:51.000Z,11.81
2022-09-10T10:56:41.000Z,11.87
2022-09-10T10:57:55.000Z,11.93
2022-09-10T10:58:41.000Z,12.12
2022-09-10T10:59:54.000Z,12.17
2022-09-10T11:00:41.000Z,12.18
2022-09-10T11:01:38.000Z,12.14
2022-09-10T11:02:43.000Z,12.10
2022-09-10T11:03:40.000Z,12.11
2022-09-10T11:04:40.000Z,12.08
2022-09-10T11:05:39.000Z,12.14
2022-09-10T11:06:39.000Z,12.19
2022-09-10T11:07:39.000Z,12.23
2022-09-10T11:08:44.000Z,12.25
2022-09-10T11:09:44.000Z,12.18
2022-09-10T11:10:41.000Z,12.20
2022-09-10T11:11:48.000Z,12.01
2022-09-10T11:12:37.000Z,12.05
2022-09-10T11:13:54.000Z,12.04
2022-09-10T11:14:53.000Z,12.09
2022-09-10T11:15:44.000Z,12.16
2022-09-10T11:16:37.000Z,12.16
2022-09-10T11:17:41.000Z,12.07
2022-09-10T11:18:40.000Z,12.11
2022-09-10T11:19:39.000Z,12.10
2022-09-10T11:20:41.000Z,12.01
2022-09-10T11:21:38.000Z,12.03
2022-09-10T11:22:38.000Z,12.09
2022-09-10T11:23:41.000Z,12.02
2022-09-10T11:24:43.000Z,12.05
2022-09-10T11:25:42.000Z,11.98
2022-09-10T11:26:40.000Z,11.99
2022-09-10T11:27:38.000Z,12.00
2022-09-10T11:28:55.000Z,12.01
2022-09-10T11:29:42.000Z,12.09
2022-09-10T11:30:33.000Z,12.11
2022-09-10T11:31:42.000Z,12.03
2022-09-10T11:32:43.000Z,12.04
2022-09-10T11:33:43.000Z,12.09
2022-09-10T11:34:52.000Z,12.12
2022-09-10T11:35:44.000Z,12.16
2022-09-10T11:36:41.000Z,12.08
2022-09-10T11:37:42.000Z,12.14
2022-09-10T11:38:55.000Z,12.01
2022-09-10T11:39:34.000Z,11.99
2022-09-10T11:40:42.000Z,12.00
2022-09-10T11:41:34.000Z,11.96
2022-09-10T11:42:39.000Z,11.97
2022-09-10T11:43:40.000Z,12.10
2022-09-10T11:44:41.000Z,12.16
2022-09-10T11:45:42.000Z,12.24
2022-09-10T11:46:40.000Z,12.34
2022-09-10T11:47:42.000Z,12.13
2022-09-10T11:48:37.000Z,12.17
2022-09-10T11:49:44.000Z,12.29
2022-09-10T11:50:43.000Z,12.39
2022-09-10T11:51:35.000Z,12.23
2022-09-10T11:52:33.000Z,12.52
2022-09-10T11:53:32.000Z,12.56
2022-09-10T11:54:34.000Z,12.48
2022-09-10T11:55:43.000Z,12.52
2022-09-10T11:56:46.000Z,12.43
2022-09-10T11:57:53.000Z,12.24
2022-09-10T11:58:47.000Z,12.23
2022-09-10T11:59:52.000Z,12.30
2022-09-10T12:00:46.000Z,12.10
2022-09-10T12:01:55.000Z,12.27
2022-09-10T12:02:42.000Z,12.00
2022-09-10T12:03:42.000Z,11.97
2022-09-10T12:04:56.000Z,12.05
2022-09-10T12:05:42.000Z,12.12
2022-09-10T12:06:42.000Z,11.94
2022-09-10T12:07:55.000Z,12.07
2022-09-10T12:08:42.000Z,11.95
2022-09-10T12:09:43.000Z,12.01
2022-09-10T12:10:39.000Z,11.95
2022-09-10T12:11:42.000Z,11.80
2022-09-10T12:12:41.000Z,12.03
2022-09-10T12:13:36.000Z,12.01
2022-09-10T12:14:32.000Z,12.01
2022-09-10T12:15:36.000Z,11.80
2022-09-10T12:16:45.000Z,11.97
2022-09-10T12:17:37.000Z,12.08
2022-09-10T12:18:41.000Z,11.87
2022-09-10T12:19:36.000Z,11.93
2022-09-10T12:20:38.000Z,11.73
2022-09-10T12:21:39.000Z,11.70
2022-09-10T12:22:38.000Z,11.84
2022-09-10T12:23:35.000Z,11.79
2022-09-10T12:24:34.000Z,11.79
2022-09-10T12:25:32.000Z,11.73
2022-09-10T12:26:40.000Z,11.95
2022-09-10T12:27:41.000Z,11.74
2022-09-10T12:28:54.000Z,11.47
2022-09-10T12:29:36.000Z,11.62
2022-09-10T12:30:49.000Z,11.49
2022-09-10T12:31:41.000Z,11.60
2022-09-10T12:32:31.000Z,11.56
2022-09-10T12:33:42.000Z,11.51
2022-09-10T12:34:32.000Z,11.54
2022-09-10T12:35:45.000Z,11.65
2022-09-10T12:37:01.000Z,11.50
2022-09-10T12:37:31.000Z,11.55
2022-09-10T12:38:42.000Z,11.52
2022-09-10T12:39:32.000Z,11.53
2022-09-10T12:40:46.000Z,11.52
2022-09-10T12:41:58.000Z,11.58
2022-09-10T12:42:32.000Z,11.59
2022-09-10T12:43:54.000Z,11.55
2022-09-10T12:44:44.000Z,11.39
2022-09-10T12:45:41.000Z,11.41
2022-09-10T12:46:32.000Z,11.53
2022-09-10T12:47:39.000Z,11.46
2022-09-10T12:48:43.000Z,11.45
2022-09-10T12:49:32.000Z,11.40
2022-09-10T12:50:33.000Z,11.26